sensor_id;sensor_type;location;lat;lon;timestamp;P1;durP1;ratioP1;P2;durP2;ratioP2
14933;SDS011;7560;51.364;12.384;2023-05-08T00:03:37;10.43;;;6.70;;
14933;SDS011;7560;51.364;12.384;2023-05-08T00:08:39;9.20;;;6.38;;
14933;SDS011;7560;51.364;12.384;2023-05-08T00:13:44;11.15;;;6.82;;
14933;SDS011;7560;51.364;12.384;2023-05-08T00:18:46;8.18;;;5.97;;
14933;SDS011;7560;51.364;12.384;2023-05-08T00:23:48;9.38;;;6.10;;
14933;SDS011;7560;51.364;12.384;2023-05-08T00:28:49;7.93;;;6.22;;
14933;SDS011;7560;51.364;12.384;2023-05-08T00:33:54;7.38;;;6.10;;
14933;SDS011;7560;51.364;12.384;2023-05-08T00:38:57;7.55;;;6.28;;
14933;SDS011;7560;51.364;12.384;2023-05-08T00:44:00;8.15;;;6.10;;
14933;SDS011;7560;51.364;12.384;2023-05-08T00:49:03;8.02;;;6.00;;
14933;SDS011;7560;51.364;12.384;2023-05-08T00:54:06;8.77;;;6.47;;
14933;SDS011;7560;51.364;12.384;2023-05-08T00:59:13;9.88;;;6.82;;
14933;SDS011;7560;51.364;12.384;2023-05-08T01:04:18;10.40;;;6.22;;
14933;SDS011;7560;51.364;12.384;2023-05-08T01:09:25;7.70;;;6.47;;
14933;SDS011;7560;51.364;12.384;2023-05-08T01:42:06;8.18;;;6.22;;
14933;SDS011;7560;51.364;12.384;2023-05-08T01:47:14;8.40;;;6.72;;
14933;SDS011;7560;51.364;12.384;2023-05-08T01:52:52;9.70;;;6.50;;
14933;SDS011;7560;51.364;12.384;2023-05-08T01:57:50;9.25;;;6.65;;
14933;SDS011;7560;51.364;12.384;2023-05-08T02:02:54;9.23;;;7.13;;
14933;SDS011;7560;51.364;12.384;2023-05-08T02:07:58;9.02;;;7.03;;
14933;SDS011;7560;51.364;12.384;2023-05-08T02:13:03;9.75;;;7.20;;
14933;SDS011;7560;51.364;12.384;2023-05-08T02:18:07;9.00;;;6.85;;
14933;SDS011;7560;51.364;12.384;2023-05-08T02:23:10;8.90;;;6.85;;
14933;SDS011;7560;51.364;12.384;2023-05-08T02:28:14;10.45;;;7.25;;
14933;SDS011;7560;51.364;12.384;2023-05-08T02:33:17;11.32;;;7.90;;
14933;SDS011;7560;51.364;12.384;2023-05-08T02:38:21;9.68;;;7.15;;
14933;SDS011;7560;51.364;12.384;2023-05-08T02:43:26;9.95;;;6.68;;
14933;SDS011;7560;51.364;12.384;2023-05-08T02:48:32;10.65;;;7.40;;
14933;SDS011;7560;51.364;12.384;2023-05-08T02:53:50;11.43;;;7.25;;
14933;SDS011;7560;51.364;12.384;2023-05-08T02:59:09;10.18;;;7.55;;
14933;SDS011;7560;51.364;12.384;2023-05-08T03:04:36;13.77;;;7.82;;
14933;SDS011;7560;51.364;12.384;2023-05-08T03:09:47;9.13;;;7.05;;
14933;SDS011;7560;51.364;12.384;2023-05-08T03:15:03;11.18;;;8.07;;
14933;SDS011;7560;51.364;12.384;2023-05-08T03:20:14;10.20;;;7.60;;
14933;SDS011;7560;51.364;12.384;2023-05-08T03:25:18;11.90;;;8.70;;
14933;SDS011;7560;51.364;12.384;2023-05-08T03:30:22;12.27;;;8.50;;
14933;SDS011;7560;51.364;12.384;2023-05-08T03:35:30;12.10;;;8.73;;
14933;SDS011;7560;51.364;12.384;2023-05-08T03:40:37;14.43;;;9.50;;
14933;SDS011;7560;51.364;12.384;2023-05-08T03:45:42;12.23;;;8.48;;
14933;SDS011;7560;51.364;12.384;2023-05-08T03:50:45;12.75;;;9.23;;
14933;SDS011;7560;51.364;12.384;2023-05-08T03:55:51;10.93;;;8.05;;
14933;SDS011;7560;51.364;12.384;2023-05-08T04:18:11;11.77;;;8.82;;
14933;SDS011;7560;51.364;12.384;2023-05-08T04:23:11;11.95;;;8.70;;
14933;SDS011;7560;51.364;12.384;2023-05-08T04:28:17;11.85;;;8.40;;
14933;SDS011;7560;51.364;12.384;2023-05-08T04:33:22;13.32;;;9.18;;
14933;SDS011;7560;51.364;12.384;2023-05-08T04:38:28;12.20;;;8.25;;
14933;SDS011;7560;51.364;12.384;2023-05-08T04:43:30;14.02;;;8.68;;
14933;SDS011;7560;51.364;12.384;2023-05-08T04:48:33;13.15;;;9.13;;
14933;SDS011;7560;51.364;12.384;2023-05-08T04:53:35;12.15;;;8.48;;
14933;SDS011;7560;51.364;12.384;2023-05-08T04:58:37;11.60;;;8.77;;
14933;SDS011;7560;51.364;12.384;2023-05-08T05:03:39;12.00;;;8.70;;
14933;SDS011;7560;51.364;12.384;2023-05-08T05:08:42;11.40;;;8.30;;
14933;SDS011;7560;51.364;12.384;2023-05-08T05:13:48;12.00;;;7.97;;
14933;SDS011;7560;51.364;12.384;2023-05-08T05:18:50;14.05;;;8.93;;
14933;SDS011;7560;51.364;12.384;2023-05-08T05:23:53;10.95;;;7.97;;
14933;SDS011;7560;51.364;12.384;2023-05-08T05:28:55;11.55;;;8.40;;
14933;SDS011;7560;51.364;12.384;2023-05-08T05:33:57;12.48;;;8.18;;
14933;SDS011;7560;51.364;12.384;2023-05-08T05:38:59;10.80;;;8.32;;
14933;SDS011;7560;51.364;12.384;2023-05-08T05:44:03;12.48;;;8.93;;
14933;SDS011;7560;51.364;12.384;2023-05-08T05:49:06;12.93;;;9.80;;
14933;SDS011;7560;51.364;12.384;2023-05-08T05:54:07;11.35;;;8.35;;
14933;SDS011;7560;51.364;12.384;2023-05-08T05:59:09;11.05;;;8.15;;
14933;SDS011;7560;51.364;12.384;2023-05-08T06:04:11;10.73;;;8.10;;
14933;SDS011;7560;51.364;12.384;2023-05-08T06:09:15;12.07;;;8.45;;
14933;SDS011;7560;51.364;12.384;2023-05-08T06:14:18;11.00;;;8.13;;
14933;SDS011;7560;51.364;12.384;2023-05-08T06:19:22;11.63;;;7.93;;
14933;SDS011;7560;51.364;12.384;2023-05-08T06:24:25;10.55;;;8.32;;
14933;SDS011;7560;51.364;12.384;2023-05-08T06:29:27;9.85;;;8.05;;
14933;SDS011;7560;51.364;12.384;2023-05-08T06:34:29;10.02;;;7.95;;
14933;SDS011;7560;51.364;12.384;2023-05-08T06:39:31;12.70;;;8.02;;
14933;SDS011;7560;51.364;12.384;2023-05-08T06:44:33;10.30;;;7.57;;
14933;SDS011;7560;51.364;12.384;2023-05-08T06:49:36;12.10;;;8.63;;
14933;SDS011;7560;51.364;12.384;2023-05-08T06:54:37;9.32;;;7.72;;
14933;SDS011;7560;51.364;12.384;2023-05-08T06:59:41;9.35;;;7.35;;
14933;SDS011;7560;51.364;12.384;2023-05-08T07:04:43;9.30;;;7.15;;
14933;SDS011;7560;51.364;12.384;2023-05-08T07:09:45;10.95;;;7.75;;
14933;SDS011;7560;51.364;12.384;2023-05-08T07:14:48;9.55;;;7.50;;
14933;SDS011;7560;51.364;12.384;2023-05-08T07:19:50;10.18;;;7.78;;
14933;SDS011;7560;51.364;12.384;2023-05-08T07:24:54;11.10;;;7.70;;
14933;SDS011;7560;51.364;12.384;2023-05-08T07:29:56;8.90;;;7.60;;
14933;SDS011;7560;51.364;12.384;2023-05-08T07:35:04;10.32;;;6.90;;
14933;SDS011;7560;51.364;12.384;2023-05-08T07:40:11;9.27;;;7.63;;
14933;SDS011;7560;51.364;12.384;2023-05-08T07:45:13;11.13;;;7.40;;
14933;SDS011;7560;51.364;12.384;2023-05-08T07:50:17;8.52;;;6.97;;
14933;SDS011;7560;51.364;12.384;2023-05-08T07:55:20;8.85;;;7.38;;
14933;SDS011;7560;51.364;12.384;2023-05-08T08:00:22;12.05;;;7.78;;
14933;SDS011;7560;51.364;12.384;2023-05-08T08:05:33;10.30;;;7.40;;
14933;SDS011;7560;51.364;12.384;2023-05-08T08:10:37;9.55;;;7.43;;
14933;SDS011;7560;51.364;12.384;2023-05-08T08:15:39;9.25;;;7.45;;
14933;SDS011;7560;51.364;12.384;2023-05-08T08:20:43;8.63;;;7.57;;
14933;SDS011;7560;51.364;12.384;2023-05-08T08:25:45;10.77;;;8.07;;
14933;SDS011;7560;51.364;12.384;2023-05-08T08:30:48;9.65;;;7.28;;
14933;SDS011;7560;51.364;12.384;2023-05-08T08:35:55;9.48;;;7.32;;
14933;SDS011;7560;51.364;12.384;2023-05-08T08:40:59;8.43;;;7.00;;
14933;SDS011;7560;51.364;12.384;2023-05-08T08:46:03;8.52;;;7.07;;
14933;SDS011;7560;51.364;12.384;2023-05-08T08:51:17;10.55;;;7.68;;
14933;SDS011;7560;51.364;12.384;2023-05-08T08:56:36;10.15;;;7.60;;
14933;SDS011;7560;51.364;12.384;2023-05-08T09:01:47;8.60;;;7.43;;
14933;SDS011;7560;51.364;12.384;2023-05-08T09:06:55;11.25;;;7.88;;
14933;SDS011;7560;51.364;12.384;2023-05-08T09:11:58;8.30;;;7.28;;
14933;SDS011;7560;51.364;12.384;2023-05-08T09:17:00;10.10;;;7.32;;
14933;SDS011;7560;51.364;12.384;2023-05-08T09:22:03;12.02;;;8.02;;
14933;SDS011;7560;51.364;12.384;2023-05-08T09:27:19;10.68;;;7.03;;
14933;SDS011;7560;51.364;12.384;2023-05-08T09:32:25;9.15;;;6.88;;
14933;SDS011;7560;51.364;12.384;2023-05-08T09:37:30;8.43;;;6.88;;
14933;SDS011;7560;51.364;12.384;2023-05-08T09:42:38;7.78;;;6.70;;
14933;SDS011;7560;51.364;12.384;2023-05-08T09:47:46;8.60;;;6.20;;
14933;SDS011;7560;51.364;12.384;2023-05-08T09:52:49;9.20;;;6.50;;
14933;SDS011;7560;51.364;12.384;2023-05-08T09:57:56;6.68;;;5.43;;
14933;SDS011;7560;51.364;12.384;2023-05-08T10:03:04;9.32;;;6.13;;
14933;SDS011;7560;51.364;12.384;2023-05-08T10:08:17;6.60;;;5.43;;
14933;SDS011;7560;51.364;12.384;2023-05-08T10:13:23;6.72;;;5.55;;
14933;SDS011;7560;51.364;12.384;2023-05-08T10:18:27;6.88;;;5.25;;
14933;SDS011;7560;51.364;12.384;2023-05-08T10:23:35;4.95;;;4.45;;
14933;SDS011;7560;51.364;12.384;2023-05-08T10:28:43;6.38;;;5.03;;
14933;SDS011;7560;51.364;12.384;2023-05-08T10:33:55;5.90;;;4.57;;
14933;SDS011;7560;51.364;12.384;2023-05-08T10:39:01;5.10;;;4.22;;
14933;SDS011;7560;51.364;12.384;2023-05-08T10:44:03;5.07;;;4.00;;
14933;SDS011;7560;51.364;12.384;2023-05-08T10:49:15;7.38;;;5.70;;
14933;SDS011;7560;51.364;12.384;2023-05-08T10:59:47;5.13;;;3.83;;
14933;SDS011;7560;51.364;12.384;2023-05-08T11:04:49;4.35;;;3.70;;
14933;SDS011;7560;51.364;12.384;2023-05-08T11:09:54;5.03;;;3.60;;
14933;SDS011;7560;51.364;12.384;2023-05-08T11:15:13;3.55;;;3.13;;
14933;SDS011;7560;51.364;12.384;2023-05-08T11:20:15;4.03;;;3.35;;
14933;SDS011;7560;51.364;12.384;2023-05-08T11:25:39;3.58;;;3.13;;
14933;SDS011;7560;51.364;12.384;2023-05-08T11:30:44;5.47;;;3.47;;
14933;SDS011;7560;51.364;12.384;2023-05-08T11:35:49;3.13;;;2.40;;
14933;SDS011;7560;51.364;12.384;2023-05-08T11:41:21;3.67;;;2.53;;
14933;SDS011;7560;51.364;12.384;2023-05-08T11:46:30;2.58;;;2.10;;
14933;SDS011;7560;51.364;12.384;2023-05-08T11:51:41;3.40;;;2.55;;
14933;SDS011;7560;51.364;12.384;2023-05-08T11:56:52;3.97;;;2.33;;
14933;SDS011;7560;51.364;12.384;2023-05-08T12:01:55;5.43;;;2.40;;
14933;SDS011;7560;51.364;12.384;2023-05-08T12:07:10;3.15;;;2.03;;
14933;SDS011;7560;51.364;12.384;2023-05-08T12:12:12;2.97;;;2.10;;
14933;SDS011;7560;51.364;12.384;2023-05-08T12:17:21;4.35;;;2.30;;
14933;SDS011;7560;51.364;12.384;2023-05-08T12:22:24;6.30;;;2.15;;
14933;SDS011;7560;51.364;12.384;2023-05-08T12:27:39;3.33;;;2.03;;
14933;SDS011;7560;51.364;12.384;2023-05-08T12:32:41;4.25;;;2.28;;
14933;SDS011;7560;51.364;12.384;2023-05-08T12:37:44;2.20;;;2.00;;
14933;SDS011;7560;51.364;12.384;2023-05-08T12:42:54;2.95;;;1.90;;
14933;SDS011;7560;51.364;12.384;2023-05-08T12:47:58;1.58;;;1.40;;
14933;SDS011;7560;51.364;12.384;2023-05-08T12:53:13;4.57;;;2.00;;
14933;SDS011;7560;51.364;12.384;2023-05-08T12:58:15;1.70;;;1.60;;
14933;SDS011;7560;51.364;12.384;2023-05-08T13:03:21;5.88;;;1.70;;
14933;SDS011;7560;51.364;12.384;2023-05-08T13:08:29;2.42;;;1.90;;
14933;SDS011;7560;51.364;12.384;2023-05-08T13:13:33;3.70;;;1.73;;
14933;SDS011;7560;51.364;12.384;2023-05-08T13:18:40;3.22;;;2.30;;
14933;SDS011;7560;51.364;12.384;2023-05-08T13:23:42;1.95;;;1.35;;
14933;SDS011;7560;51.364;12.384;2023-05-08T13:28:43;3.05;;;1.70;;
14933;SDS011;7560;51.364;12.384;2023-05-08T13:33:46;1.92;;;1.60;;
14933;SDS011;7560;51.364;12.384;2023-05-08T13:38:51;3.15;;;1.55;;
14933;SDS011;7560;51.364;12.384;2023-05-08T13:43:55;3.00;;;1.90;;
14933;SDS011;7560;51.364;12.384;2023-05-08T13:48:57;4.07;;;1.60;;
14933;SDS011;7560;51.364;12.384;2023-05-08T13:54:00;2.33;;;1.77;;
14933;SDS011;7560;51.364;12.384;2023-05-08T13:59:02;2.28;;;1.80;;
14933;SDS011;7560;51.364;12.384;2023-05-08T14:04:07;1.90;;;1.25;;
14933;SDS011;7560;51.364;12.384;2023-05-08T14:09:09;1.70;;;1.60;;
14933;SDS011;7560;51.364;12.384;2023-05-08T14:14:13;2.60;;;1.60;;
14933;SDS011;7560;51.364;12.384;2023-05-08T14:19:15;2.88;;;1.55;;
14933;SDS011;7560;51.364;12.384;2023-05-08T14:24:17;2.80;;;1.80;;
14933;SDS011;7560;51.364;12.384;2023-05-08T14:29:19;2.10;;;1.80;;
14933;SDS011;7560;51.364;12.384;2023-05-08T14:34:21;1.95;;;1.60;;
14933;SDS011;7560;51.364;12.384;2023-05-08T14:39:23;3.22;;;1.73;;
14933;SDS011;7560;51.364;12.384;2023-05-08T14:44:27;2.10;;;1.60;;
14933;SDS011;7560;51.364;12.384;2023-05-08T14:49:30;4.25;;;1.92;;
14933;SDS011;7560;51.364;12.384;2023-05-08T14:54:52;2.47;;;1.50;;
14933;SDS011;7560;51.364;12.384;2023-05-08T14:59:54;2.15;;;1.50;;
14933;SDS011;7560;51.364;12.384;2023-05-08T15:04:56;2.90;;;1.95;;
14933;SDS011;7560;51.364;12.384;2023-05-08T15:09:58;2.15;;;1.70;;
14933;SDS011;7560;51.364;12.384;2023-05-08T15:15:00;2.55;;;1.92;;
14933;SDS011;7560;51.364;12.384;2023-05-08T15:20:04;3.45;;;1.98;;
14933;SDS011;7560;51.364;12.384;2023-05-08T15:25:07;2.95;;;1.67;;
14933;SDS011;7560;51.364;12.384;2023-05-08T15:30:09;2.53;;;1.70;;
14933;SDS011;7560;51.364;12.384;2023-05-08T15:35:12;2.17;;;1.95;;
14933;SDS011;7560;51.364;12.384;2023-05-08T15:40:15;1.88;;;1.70;;
14933;SDS011;7560;51.364;12.384;2023-05-08T15:45:17;6.40;;;2.03;;
14933;SDS011;7560;51.364;12.384;2023-05-08T15:50:19;3.65;;;2.00;;
14933;SDS011;7560;51.364;12.384;2023-05-08T15:55:22;4.10;;;2.05;;
14933;SDS011;7560;51.364;12.384;2023-05-08T16:00:24;4.25;;;2.97;;
14933;SDS011;7560;51.364;12.384;2023-05-08T16:05:37;3.40;;;1.88;;
14933;SDS011;7560;51.364;12.384;2023-05-08T16:10:40;2.50;;;1.98;;
14933;SDS011;7560;51.364;12.384;2023-05-08T16:15:43;2.95;;;2.17;;
14933;SDS011;7560;51.364;12.384;2023-05-08T16:20:45;3.78;;;2.85;;
14933;SDS011;7560;51.364;12.384;2023-05-08T16:25:46;10.63;;;2.72;;
14933;SDS011;7560;51.364;12.384;2023-05-08T16:30:49;3.08;;;1.73;;
14933;SDS011;7560;51.364;12.384;2023-05-08T16:35:51;3.70;;;2.28;;
14933;SDS011;7560;51.364;12.384;2023-05-08T16:40:53;2.10;;;1.90;;
14933;SDS011;7560;51.364;12.384;2023-05-08T16:45:56;2.75;;;2.10;;
14933;SDS011;7560;51.364;12.384;2023-05-08T16:50:59;3.47;;;2.30;;
14933;SDS011;7560;51.364;12.384;2023-05-08T16:56:01;2.50;;;2.00;;
14933;SDS011;7560;51.364;12.384;2023-05-08T17:01:03;3.47;;;1.85;;
14933;SDS011;7560;51.364;12.384;2023-05-08T17:06:06;2.60;;;1.95;;
14933;SDS011;7560;51.364;12.384;2023-05-08T17:11:08;3.63;;;1.90;;
14933;SDS011;7560;51.364;12.384;2023-05-08T17:16:10;3.90;;;1.77;;
14933;SDS011;7560;51.364;12.384;2023-05-08T17:21:12;3.17;;;1.90;;
14933;SDS011;7560;51.364;12.384;2023-05-08T17:26:14;2.03;;;1.83;;
14933;SDS011;7560;51.364;12.384;2023-05-08T17:31:16;2.10;;;1.83;;
14933;SDS011;7560;51.364;12.384;2023-05-08T17:36:17;3.05;;;2.60;;
14933;SDS011;7560;51.364;12.384;2023-05-08T17:41:20;2.83;;;2.13;;
14933;SDS011;7560;51.364;12.384;2023-05-08T17:46:24;2.92;;;2.17;;
14933;SDS011;7560;51.364;12.384;2023-05-08T17:51:26;3.42;;;2.38;;
14933;SDS011;7560;51.364;12.384;2023-05-08T17:56:30;4.85;;;2.33;;
14933;SDS011;7560;51.364;12.384;2023-05-08T18:01:32;3.08;;;2.33;;
14933;SDS011;7560;51.364;12.384;2023-05-08T18:06:34;5.25;;;2.63;;
14933;SDS011;7560;51.364;12.384;2023-05-08T18:11:36;3.42;;;2.55;;
14933;SDS011;7560;51.364;12.384;2023-05-08T18:16:38;5.45;;;2.40;;
14933;SDS011;7560;51.364;12.384;2023-05-08T18:21:43;2.83;;;2.28;;
14933;SDS011;7560;51.364;12.384;2023-05-08T18:26:45;3.00;;;2.30;;
14933;SDS011;7560;51.364;12.384;2023-05-08T18:31:48;4.03;;;2.35;;
14933;SDS011;7560;51.364;12.384;2023-05-08T18:36:51;3.83;;;2.33;;
14933;SDS011;7560;51.364;12.384;2023-05-08T18:41:55;3.25;;;2.28;;
14933;SDS011;7560;51.364;12.384;2023-05-08T18:46:57;2.83;;;2.28;;
14933;SDS011;7560;51.364;12.384;2023-05-08T18:52:01;3.45;;;2.30;;
14933;SDS011;7560;51.364;12.384;2023-05-08T18:57:03;4.57;;;2.22;;
14933;SDS011;7560;51.364;12.384;2023-05-08T19:02:05;3.47;;;2.58;;
14933;SDS011;7560;51.364;12.384;2023-05-08T19:07:07;3.42;;;2.60;;
14933;SDS011;7560;51.364;12.384;2023-05-08T19:12:08;4.10;;;2.92;;
14933;SDS011;7560;51.364;12.384;2023-05-08T19:17:10;5.90;;;3.05;;
14933;SDS011;7560;51.364;12.384;2023-05-08T19:22:12;5.05;;;2.95;;
14933;SDS011;7560;51.364;12.384;2023-05-08T19:27:15;4.30;;;2.83;;
14933;SDS011;7560;51.364;12.384;2023-05-08T19:32:18;3.83;;;3.05;;
14933;SDS011;7560;51.364;12.384;2023-05-08T19:37:20;3.58;;;2.95;;
14933;SDS011;7560;51.364;12.384;2023-05-08T19:42:22;4.35;;;2.95;;
14933;SDS011;7560;51.364;12.384;2023-05-08T19:47:24;9.25;;;3.13;;
14933;SDS011;7560;51.364;12.384;2023-05-08T19:52:26;4.47;;;2.90;;
14933;SDS011;7560;51.364;12.384;2023-05-08T19:57:27;5.30;;;3.28;;
14933;SDS011;7560;51.364;12.384;2023-05-08T20:02:30;3.58;;;3.20;;
14933;SDS011;7560;51.364;12.384;2023-05-08T20:07:33;9.82;;;3.47;;
14933;SDS011;7560;51.364;12.384;2023-05-08T20:12:35;5.20;;;3.58;;
14933;SDS011;7560;51.364;12.384;2023-05-08T20:17:40;5.38;;;4.13;;
14933;SDS011;7560;51.364;12.384;2023-05-08T20:22:42;8.60;;;4.35;;
14933;SDS011;7560;51.364;12.384;2023-05-08T20:27:43;9.95;;;4.40;;
14933;SDS011;7560;51.364;12.384;2023-05-08T20:32:45;6.57;;;3.90;;
14933;SDS011;7560;51.364;12.384;2023-05-08T20:37:47;6.32;;;4.35;;
14933;SDS011;7560;51.364;12.384;2023-05-08T20:42:49;5.85;;;4.07;;
14933;SDS011;7560;51.364;12.384;2023-05-08T20:47:51;5.10;;;4.07;;
14933;SDS011;7560;51.364;12.384;2023-05-08T20:52:54;10.23;;;4.35;;
14933;SDS011;7560;51.364;12.384;2023-05-08T20:57:56;6.05;;;4.25;;
14933;SDS011;7560;51.364;12.384;2023-05-08T21:02:59;7.22;;;4.53;;
14933;SDS011;7560;51.364;12.384;2023-05-08T21:08:02;6.13;;;4.63;;
14933;SDS011;7560;51.364;12.384;2023-05-08T21:13:06;5.93;;;4.85;;
14933;SDS011;7560;51.364;12.384;2023-05-08T21:18:09;7.28;;;4.93;;
14933;SDS011;7560;51.364;12.384;2023-05-08T21:23:13;6.95;;;5.32;;
14933;SDS011;7560;51.364;12.384;2023-05-08T21:28:14;6.32;;;5.00;;
14933;SDS011;7560;51.364;12.384;2023-05-08T21:33:17;8.25;;;5.38;;
14933;SDS011;7560;51.364;12.384;2023-05-08T21:38:21;6.43;;;5.13;;
14933;SDS011;7560;51.364;12.384;2023-05-08T21:43:23;8.80;;;5.30;;
14933;SDS011;7560;51.364;12.384;2023-05-08T21:48:25;8.48;;;6.10;;
14933;SDS011;7560;51.364;12.384;2023-05-08T21:53:28;7.43;;;5.97;;
14933;SDS011;7560;51.364;12.384;2023-05-08T21:58:30;9.30;;;5.88;;
14933;SDS011;7560;51.364;12.384;2023-05-08T22:03:32;8.52;;;6.20;;
14933;SDS011;7560;51.364;12.384;2023-05-08T22:08:34;9.85;;;6.55;;
14933;SDS011;7560;51.364;12.384;2023-05-08T22:13:36;8.20;;;6.10;;
14933;SDS011;7560;51.364;12.384;2023-05-08T22:18:38;7.80;;;5.57;;
14933;SDS011;7560;51.364;12.384;2023-05-08T22:23:42;8.45;;;6.35;;
14933;SDS011;7560;51.364;12.384;2023-05-08T22:28:48;7.60;;;5.93;;
14933;SDS011;7560;51.364;12.384;2023-05-08T22:33:51;8.35;;;6.30;;
14933;SDS011;7560;51.364;12.384;2023-05-08T22:38:55;7.93;;;6.35;;
14933;SDS011;7560;51.364;12.384;2023-05-08T22:43:58;7.35;;;6.10;;
14933;SDS011;7560;51.364;12.384;2023-05-08T22:49:00;8.30;;;6.53;;
14933;SDS011;7560;51.364;12.384;2023-05-08T22:54:02;8.32;;;6.75;;
14933;SDS011;7560;51.364;12.384;2023-05-08T22:59:04;9.15;;;7.43;;
14933;SDS011;7560;51.364;12.384;2023-05-08T23:04:06;7.63;;;6.72;;
14933;SDS011;7560;51.364;12.384;2023-05-08T23:09:08;9.07;;;7.28;;
14933;SDS011;7560;51.364;12.384;2023-05-08T23:14:10;10.05;;;7.55;;
14933;SDS011;7560;51.364;12.384;2023-05-08T23:19:12;10.63;;;7.30;;
14933;SDS011;7560;51.364;12.384;2023-05-08T23:24:14;10.38;;;7.57;;
14933;SDS011;7560;51.364;12.384;2023-05-08T23:29:16;9.85;;;7.28;;
14933;SDS011;7560;51.364;12.384;2023-05-08T23:34:18;11.07;;;7.65;;
14933;SDS011;7560;51.364;12.384;2023-05-08T23:39:20;9.02;;;7.10;;
14933;SDS011;7560;51.364;12.384;2023-05-08T23:44:22;10.88;;;7.15;;
14933;SDS011;7560;51.364;12.384;2023-05-08T23:49:24;13.93;;;8.05;;
14933;SDS011;7560;51.364;12.384;2023-05-08T23:54:26;14.27;;;7.30;;
14933;SDS011;7560;51.364;12.384;2023-05-08T23:59:27;10.30;;;7.63;;
